Tropical Cyclones
[Index]
Main Index Home Page Stock Weather Photos Extreme Storms Discussion Storm News and Storm Chasing Reports Tropical Cyclones / Hurricanes / Typhoons Weather Data and Links Wild Fires / Bushfires Weather Observation Techniques Weather Picture Catalogue Tornado Pictures and Reports Stock Video Footage and DVDs for sale
Season 1966-1967 Tropical Cyclone COLETTE Track Map
Season 1966-1967 Summaries: [BoM-AU] [JTWC-AU] [JTWC-SIO] [JTWC-SPAC] [JTWC-SH]
<<- Previous TC | JTWC 1966-1967 Season | Next TC ->>

click for intensity scale information  Lat/long Grid: Show Hide

 Date Labels: Show Hide

Joint Typhoon Warning Centre Cyclone Data

Name: COLETTE
Number: 620 / 6705

11 Dec 1966 06:00 UTC to 21 Dec 1966 18:00 UTC

    date/time    lat    long     hPa   cat  kts
1966-12-11 06    8.9    59.9                              
1966-12-11 12    9.4    58.2                              
1966-12-11 18    9.7    57.2                              
1966-12-12 00    9.8    57.3                              
1966-12-12 06   10.0    57.4                              
1966-12-12 12   10.5    56.1                              
1966-12-12 18   11.1    54.7                              
1966-12-13 00   11.4    54.4                              
1966-12-13 06   11.7    53.8                              
1966-12-13 12   11.9    52.2                              
1966-12-13 18   12.0    50.5                              
1966-12-14 00   12.1    48.9                              
1966-12-14 06   12.4    47.2                              
1966-12-14 12   13.5    46.1                              
1966-12-14 18   14.9    45.3                              
1966-12-15 00   16.5    44.3                              
1966-12-15 06   17.5    43.8                              
1966-12-15 12   17.6    44.3                              
1966-12-15 18   17.8    45.3                              
1966-12-16 00   17.9    46.2                              
1966-12-16 06   18.1    47.2                              
1966-12-16 12   18.5    48.5                              
1966-12-16 18   19.2    49.9                              
1966-12-17 00   19.8    51.4                              
1966-12-17 06   20.4    52.5                              
1966-12-17 12   20.5    52.7                              
1966-12-17 18   20.5    52.7                              
1966-12-18 00   20.6    52.9                              
1966-12-18 06   21.0    53.0                              
1966-12-18 12   21.6    52.9                              
1966-12-18 18   22.3    52.7                              
1966-12-19 00   23.0    51.6                              
1966-12-19 06   23.7    51.1                              
1966-12-19 12   24.3    52.3                              
1966-12-19 18   24.9    53.5                              
1966-12-20 00   25.5    54.7                              
1966-12-20 06   26.1    55.8                              
1966-12-20 12   26.7    56.7                              
1966-12-20 18   27.2    57.6                              
1966-12-21 00   27.4    59.1                              
1966-12-21 06   27.6    60.6                              
1966-12-21 12   28.2    62.0                              
1966-12-21 18   29.2    63.4                              
Winds are 1-min average.

Tropical cyclone tracks developed by Michael Bath using data from the Joint Typhoon Warning Centre Best Tracks and Google Maps.


[Australian Severe Weather index] [Copyright Notice] [Email Contacts] [Search This Site] [Privacy Policy]
Document: tropical_cyclone_colette.htm Updated: 18 September 2016